Date,TemperatureHighF,TemperatureAvgF,TemperatureLowF,DewpointHighF,DewpointAvgF,DewpointLowF,HumidityHigh,HumidityAvg,HumidityLow,PressureMaxIn,PressureMinIn,WindSpeedMaxMPH,WindSpeedAvgMPH,GustSpeedMaxMPH,PrecipitationSumIn
2013-1-1,34,19,8,-100,-100,-100,0,0,100,0.00,40.00,6,2,0,0.00
2013-1-2,34,21,7,-100,-100,-100,0,0,100,0.00,40.00,9,3,0,0.00
2013-1-3,40,21,5,-100,-100,-100,0,0,100,0.00,40.00,5,2,0,0.00
2013-1-4,52,27,8,-100,-100,-100,0,0,100,0.00,40.00,6,2,0,0.00
2013-1-5,41,25,11,-100,-100,-100,0,0,100,0.00,40.00,9,3,0,0.00
2013-1-6,51,27,5,-100,-100,-100,0,0,100,0.00,40.00,3,2,0,0.00
2013-1-7,55,35,24,-100,-100,-100,0,0,100,0.00,40.00,4,2,0,0.00
2013-1-8,55,42,22,-100,-100,-100,0,0,100,0.00,40.00,9,4,0,0.00
2013-1-9,46,25,18,-100,-100,-100,0,0,100,0.00,40.00,3,2,0,0.00
2013-1-10,46,32,17,-100,-100,-100,0,0,100,0.00,40.00,6,2,0,0.00
2013-1-11,45,29,13,-100,-100,-100,0,0,100,0.00,40.00,10,5,0,0.00
2013-1-12,16,7,1,-100,-100,-100,0,0,100,0.00,40.00,6,3,0,0.00
2013-1-13,16,7,-3,-100,-100,-100,0,0,100,0.00,40.00,6,2,0,0.00
2013-1-14,16,7,-2,-100,-100,-100,0,0,100,0.00,40.00,7,2,0,0.00
2013-1-15,32,21,-5,-100,-100,-100,0,0,100,0.00,40.00,5,2,0,0.00
2013-1-16,55,34,16,-100,-100,-100,0,0,100,0.00,40.00,7,3,0,0.00
2013-1-17,53,32,16,-100,-100,-100,0,0,100,0.00,40.00,6,2,0,0.00
2013-1-18,60,40,18,-100,-100,-100,0,0,100,0.00,40.00,11,4,0,0.00
2013-1-19,62,46,33,-100,-100,-100,0,0,100,0.00,40.00,11,4,0,0.00
2013-1-20,47,35,22,-100,-100,-100,0,0,100,0.00,40.00,6,3,0,0.00
2013-1-21,58,38,13,-100,-100,-100,0,0,100,0.00,40.00,9,4,0,0.00
2013-1-22,65,52,35,-100,-100,-100,0,0,100,0.00,40.00,12,6,0,0.00
2013-1-23,50,37,24,-100,-100,-100,0,0,100,0.00,40.00,3,2,0,0.00
2013-1-24,68,47,24,-100,-100,-100,0,0,100,0.00,40.00,13,6,0,0.00
2013-1-25,59,42,27,-100,-100,-100,0,0,100,0.00,40.00,8,2,0,0.00
2013-1-26,54,40,25,-100,-100,-100,0,0,100,0.00,40.00,4,2,0,0.00
2013-1-27,58,42,27,-100,-100,-100,0,0,100,0.00,40.00,5,2,0,0.00
2013-1-28,55,36,25,-100,-100,-100,0,0,100,0.00,40.00,15,4,0,0.00
2013-1-29,35,26,20,-100,-100,-100,0,0,100,0.00,40.00,10,4,0,0.00
2013-1-30,39,27,8,-100,-100,-100,0,0,100,0.00,40.00,12,5,0,0.00
2013-1-31,48,40,28,-100,-100,-100,0,0,100,0.00,40.00,11,5,0,0.00
2013-2-1,51,36,21,-100,-100,-100,0,0,100,0.00,40.00,11,5,0,0.00
2013-2-2,61,39,20,-100,-100,-100,0,0,100,0.00,40.00,6,3,0,0.00
2013-2-3,55,38,21,-100,-100,-100,0,0,100,0.00,40.00,10,3,0,0.00
2013-2-4,56,40,21,-100,-100,-100,0,0,100,0.00,40.00,16,6,0,0.00
2013-2-5,62,45,29,-100,-100,-100,0,0,100,0.00,40.00,7,3,0,0.00
2013-2-6,54,40,26,-100,-100,-100,0,0,100,0.00,40.00,7,3,0,0.00
2013-2-7,48,35,22,-100,-100,-100,0,0,100,0.00,40.00,7,3,0,0.00
2013-2-8,52,33,18,-100,-100,-100,0,0,100,0.00,40.00,6,3,0,0.00
2013-2-9,38,29,21,-100,-100,-100,0,0,100,0.00,40.00,9,4,0,0.00
2013-2-10,36,27,19,-100,-100,-100,0,0,100,0.00,40.00,9,4,0,0.00
2013-2-11,30,28,24,-100,-100,-100,0,0,100,0.00,40.00,5,4,0,0.00
2013-2-12,43,26,8,-100,-100,-100,0,0,100,0.00,40.00,5,2,0,0.00
2013-2-13,47,35,16,-100,-100,-100,0,0,100,0.00,40.00,19,6,0,0.00
2013-2-14,34,27,23,-100,-100,-100,0,0,100,0.00,40.00,14,5,0,0.00
2013-2-15,43,26,11,-100,-100,-100,0,0,100,0.00,40.00,7,3,0,0.00
2013-2-16,57,47,21,-100,-100,-100,0,0,100,0.00,40.00,13,8,0,0.00
2013-2-17,64,43,24,-100,-100,-100,0,0,100,0.00,40.00,10,5,0,0.00
2013-2-18,42,34,25,-100,-100,-100,0,0,100,0.00,40.00,17,7,0,0.00
2013-2-19,44,30,14,-100,-100,-100,0,0,100,0.00,40.00,5,2,0,0.00
2013-2-20,35,26,20,-100,-100,-100,0,0,100,0.00,40.00,6,4,0,0.00
2013-2-21,31,23,15,-100,-100,-100,0,0,100,0.00,40.00,7,3,0,0.00
2013-2-22,36,23,13,-100,-100,-100,0,0,100,0.00,40.00,4,2,0,0.00
2013-2-23,48,31,15,-100,-100,-100,0,0,100,0.00,40.00,7,4,0,0.00
2013-2-24,29,26,23,-100,-100,-100,0,0,100,0.00,40.00,13,7,0,0.00
2013-2-25,39,24,4,-100,-100,-100,0,0,100,0.00,40.00,7,2,0,0.00
2013-2-26,32,26,13,-100,-100,-100,0,0,100,0.00,40.00,14,6,0,0.00
2013-2-27,36,28,13,-100,-100,-100,0,0,100,0.00,40.00,7,4,0,0.00
2013-2-28,45,31,9,-100,-100,-100,0,0,100,0.00,40.00,13,5,0,0.00
2013-3-1,49,37,25,-100,-100,-100,0,0,100,0.00,40.00,7,4,0,0.00
2013-3-2,63,46,25,-100,-100,-100,0,0,100,0.00,40.00,7,3,0,0.00
2013-3-3,65,51,36,-100,-100,-100,0,0,100,0.00,40.00,9,4,0,0.00
2013-3-4,45,31,20,-100,-100,-100,0,0,100,0.00,40.00,10,5,0,0.00
2013-3-5,41,26,10,-100,-100,-100,0,0,100,0.00,40.00,6,3,0,0.00
2013-3-6,60,38,17,-100,-100,-100,0,0,100,0.00,40.00,7,3,0,0.00
2013-3-7,64,44,26,-100,-100,-100,0,0,100,0.00,40.00,8,3,0,0.00
2013-3-8,50,38,28,-100,-100,-100,0,0,100,0.00,40.00,4,2,0,0.00
2013-3-9,34,30,23,-100,-100,-100,0,0,100,0.00,40.00,14,6,0,0.00
2013-3-10,26,20,14,-100,-100,-100,0,0,100,0.00,40.00,1,1,0,0.00
2013-3-11,55,45,34,-100,-100,-100,0,0,100,0.00,40.00,14,8,0,0.00
2013-3-12,40,30,25,-100,-100,-100,0,0,100,0.00,40.00,3,2,0,0.00
2013-3-13,66,48,27,-100,-100,-100,0,0,100,0.00,40.00,11,4,0,0.00
2013-3-14,73,58,39,-100,-100,-100,0,0,100,0.00,40.00,9,4,0,0.00
2013-3-15,76,63,47,-100,-100,-100,0,0,100,0.00,40.00,9,5,0,0.00
2013-3-16,54,46,38,-100,-100,-100,0,0,100,0.00,40.00,7,4,0,0.00
2013-3-17,52,48,44,-100,-100,-100,0,0,100,0.00,40.00,9,8,0,0.00
2013-3-18,50,41,28,-100,-100,-100,0,0,100,0.00,40.00,10,6,0,0.00
2013-3-19,56,44,31,-100,-100,-100,0,0,100,0.00,40.00,15,7,0,0.00
2013-3-20,53,36,19,-100,-100,-100,0,0,100,0.00,40.00,6,2,0,0.00
2013-3-21,61,44,31,-100,-100,-100,0,0,100,0.00,40.00,16,7,0,0.00
2013-3-22,50,34,25,-100,-100,-100,0,0,100,0.00,40.00,11,4,0,0.00
2013-3-23,23,18,11,-100,-100,-100,0,0,100,0.00,40.00,15,6,0,0.00
2013-3-24,27,17,2,-100,-100,-100,0,0,100,0.00,40.00,8,3,0,0.00
2013-3-25,35,26,14,-100,-100,-100,0,0,100,0.00,40.00,6,3,0,0.00
2013-3-26,56,35,15,-100,-100,-100,0,0,100,0.00,40.00,6,3,0,0.00
2013-3-27,55,43,27,-100,-100,-100,0,0,100,0.00,40.00,6,3,0,0.00
2013-3-28,66,48,29,-100,-100,-100,0,0,100,0.00,40.00,5,3,0,0.00
2013-3-29,66,52,34,-100,-100,-100,0,0,100,0.00,40.00,10,4,0,0.00
2013-3-30,66,51,36,-100,-100,-100,0,0,100,0.00,40.00,14,6,0,0.00
2013-3-31,71,53,28,-100,-100,-100,0,0,100,0.00,40.00,7,4,0,0.00
2013-4-1,52,42,30,-100,-100,-100,0,0,100,0.00,40.00,11,5,0,0.00
2013-4-2,39,37,36,-100,-100,-100,0,0,100,0.00,40.00,6,3,0,0.00
2013-4-3,62,47,36,-100,-100,-100,0,0,100,0.00,40.00,6,3,0,0.00
2013-4-4,69,55,34,-100,-100,-100,0,0,100,0.00,40.00,6,4,0,0.00
2013-4-5,72,59,46,-100,-100,-100,0,0,100,0.00,40.00,13,4,0,0.00
2013-4-6,65,56,44,-100,-100,-100,0,0,100,0.00,40.00,7,4,0,0.00
2013-4-7,65,56,39,-100,-100,-100,0,0,100,0.00,40.00,10,6,0,0.00
2013-4-8,62,48,29,-100,-100,-100,0,0,100,0.00,40.00,21,7,0,0.00
2013-4-9,20,16,12,-100,-100,-100,0,0,100,0.00,40.00,11,8,0,0.00
2013-4-10,28,20,8,-100,-100,-100,0,0,100,0.00,40.00,6,4,0,0.00
2013-4-11,57,40,19,-100,-100,-100,0,0,100,0.00,40.00,10,4,0,0.00
2013-4-12,62,44,29,-100,-100,-100,0,0,100,0.00,40.00,20,5,0,0.00
2013-4-13,68,52,28,-100,-100,-100,0,0,100,0.00,40.00,12,4,0,0.00
2013-4-14,50,43,36,-100,-100,-100,0,0,100,0.00,40.00,14,7,0,0.00
2013-4-15,37,28,23,-100,-100,-100,0,0,100,0.00,40.00,10,5,0,0.00
2013-4-16,35,29,23,-100,-100,-100,0,0,100,0.00,40.00,11,5,0,0.00
2013-4-17,30,26,21,-100,-100,-100,0,0,100,0.00,40.00,13,7,0,0.00
2013-4-18,38,28,13,-100,-100,-100,0,0,100,0.00,40.00,6,3,0,0.00
2013-4-19,54,45,30,-100,-100,-100,0,0,100,0.00,40.00,14,6,0,0.00
2013-4-20,59,47,34,-100,-100,-100,0,0,100,0.00,40.00,7,3,0,0.00
2013-4-21,61,54,40,-100,-100,-100,0,0,100,0.00,40.00,11,7,0,0.00
2013-4-22,53,33,23,-100,-100,-100,0,0,100,0.00,40.00,16,7,0,0.00
2013-4-23,36,28,21,-100,-100,-100,0,0,100,0.00,40.00,5,3,0,0.00
2013-4-24,56,40,21,-100,-100,-100,0,0,100,0.00,40.00,6,4,0,0.00
2013-4-25,65,50,28,-100,-100,-100,0,0,100,0.00,40.00,6,3,0,0.00
2013-4-26,67,54,38,-100,-100,-100,0,0,100,0.00,40.00,8,4,0,0.00
2013-4-27,76,59,37,-100,-100,-100,0,0,100,0.00,40.00,8,4,0,0.00
2013-4-28,80,70,45,-100,-100,-100,0,0,100,0.00,40.00,9,5,0,0.00
2013-4-29,79,65,50,-100,-100,-100,0,0,100,0.00,40.00,9,5,0,0.00
2013-4-30,55,53,52,-100,-100,-100,0,0,100,0.00,40.00,9,7,0,0.00
2013-5-1,33,30,24,-100,-100,-100,0,0,100,0.00,40.00,13,6,0,0.00
2013-5-2,46,36,18,-100,-100,-100,0,0,100,0.00,40.00,5,2,0,0.00
2013-5-3,55,40,25,-100,-100,-100,0,0,100,0.00,40.00,4,2,0,0.00
2013-5-4,58,51,36,-100,-100,-100,0,0,100,0.00,40.00,8,5,0,0.00
2013-5-5,56,47,37,-100,-100,-100,0,0,100,0.00,40.00,6,3,0,0.00
2013-5-6,66,58,46,-100,-100,-100,0,0,100,0.00,40.00,7,4,0,0.00
2013-5-7,70,59,47,-100,-100,-100,0,0,100,0.00,40.00,11,4,0,0.00
2013-5-8,59,48,42,-100,-100,-100,0,0,100,0.00,40.00,10,5,0,0.00
2013-5-9,56,50,43,-100,-100,-100,0,0,100,0.00,40.00,14,4,0,0.00
2013-5-10,68,52,35,-100,-100,-100,0,0,100,0.00,40.00,9,4,0,0.00
2013-5-11,67,56,43,-100,-100,-100,0,0,100,0.00,40.00,9,3,0,0.00
2013-5-12,78,66,47,-100,-100,-100,0,0,100,0.00,40.00,7,4,0,0.00
2013-5-13,84,72,50,-100,-100,-100,0,0,100,0.00,40.00,7,4,0,0.00
2013-5-14,85,73,53,-100,-100,-100,0,0,100,0.00,40.00,11,5,0,0.00
2013-5-15,81,66,54,-100,-100,-100,0,0,100,0.00,40.00,12,4,0,0.00
2013-5-16,79,57,50,-100,-100,-100,0,0,100,0.00,40.00,9,3,0,0.00
2013-5-17,88,69,48,-100,-100,-100,0,0,100,0.00,40.00,9,4,0,0.00
2013-5-18,77,65,51,-100,-100,-100,0,0,100,0.00,40.00,10,4,0,0.00
2013-5-19,73,61,50,-100,-100,-100,0,0,100,0.00,40.00,14,5,0,0.00
2013-5-20,67,55,47,-100,-100,-100,0,0,100,0.00,40.00,8,4,0,0.00
2013-5-21,70,58,40,-100,-100,-100,0,0,100,0.00,40.00,8,5,0,0.00
2013-5-22,76,65,53,-100,-100,-100,0,0,100,0.00,40.00,6,4,0,0.00
2013-5-23,73,60,47,-100,-100,-100,0,0,100,0.00,40.00,6,3,0,0.00
2013-5-24,83,68,45,-100,-100,-100,0,0,100,0.00,40.00,11,4,0,0.00
2013-5-25,89,72,51,-100,-100,-100,0,0,100,0.00,40.00,6,3,0,0.00
2013-5-26,84,71,54,-100,-100,-100,0,0,100,0.00,40.00,8,4,0,0.00
2013-5-27,81,69,52,-100,-100,-100,0,0,100,0.00,40.00,9,4,0,0.00
2013-5-28,82,67,47,-100,-100,-100,0,0,100,0.00,40.00,8,4,0,0.00
2013-5-29,64,57,49,-100,-100,-100,0,0,100,0.00,40.00,7,4,0,0.00
2013-5-30,70,62,53,-100,-100,-100,0,0,100,0.00,40.00,12,8,0,0.00
2013-5-31,73,63,50,-100,-100,-100,0,0,100,0.00,40.00,11,7,0,0.00
2013-6-1,69,58,41,-100,-100,-100,0,0,100,0.00,40.00,9,4,0,0.00
2013-6-2,84,65,41,-100,-100,-100,0,0,100,0.00,40.00,5,3,0,0.00
2013-6-3,91,72,48,-100,-100,-100,0,0,100,0.00,40.00,11,5,0,0.00
2013-6-4,65,57,52,-100,-100,-100,0,0,100,0.00,40.00,5,3,0,0.00
2013-6-5,59,54,48,-100,-100,-100,0,0,100,0.00,40.00,4,2,0,0.00
2013-6-6,79,65,40,-100,-100,-100,0,0,100,0.00,40.00,5,3,0,0.00
2013-6-7,81,64,49,-100,-100,-100,0,0,100,0.00,40.00,7,3,0,0.00
2013-6-8,76,69,54,-100,-100,-100,0,0,100,0.00,40.00,10,5,0,0.00
2013-6-9,91,73,46,-100,-100,-100,0,0,100,0.00,40.00,6,3,0,0.00
2013-6-10,95,78,56,-100,-100,-100,0,0,100,0.00,40.00,10,3,0,0.00
2013-6-11,98,89,72,-100,-100,-100,0,0,100,0.00,40.00,11,7,0,0.00
2013-6-12,94,78,56,-100,-100,-100,0,0,100,0.00,40.00,6,3,0,0.00
2013-6-13,83,71,57,-100,-100,-100,0,0,100,0.00,40.00,6,3,0,0.00
2013-6-14,88,79,65,-100,-100,-100,0,0,100,0.00,40.00,12,6,0,0.00
2013-6-15,84,70,54,-100,-100,-100,0,0,100,0.00,40.00,5,3,0,0.00
2013-6-16,84,71,56,-100,-100,-100,0,0,100,0.00,40.00,10,4,0,0.00
2013-6-17,82,68,50,-100,-100,-100,0,0,100,0.00,40.00,7,3,0,0.00
2013-6-18,83,69,53,-100,-100,-100,0,0,100,0.00,40.00,11,4,0,0.00
2013-6-19,93,75,50,-100,-100,-100,0,0,100,0.00,40.00,10,3,0,0.00
2013-6-20,84,70,54,-100,-100,-100,0,0,100,0.00,40.00,5,3,0,0.00
2013-6-22,88,77,66,-100,-100,-100,0,0,100,0.00,40.00,5,4,0,0.00
2013-6-23,84,69,51,-100,-100,-100,0,0,100,0.00,40.00,8,4,0,0.00
2013-6-24,89,75,58,-100,-100,-100,0,0,100,0.00,40.00,9,4,0,0.00
2013-6-25,91,78,57,-100,-100,-100,0,0,100,0.00,40.00,8,4,0,0.00
2013-6-26,98,81,59,-100,-100,-100,0,0,100,0.00,40.00,7,3,0,0.00
2013-6-27,96,84,62,-100,-100,-100,0,0,100,0.00,40.00,6,3,0,0.00
2013-6-28,93,79,62,-100,-100,-100,0,0,100,0.00,40.00,18,4,0,0.00
2013-6-29,84,73,60,-100,-100,-100,0,0,100,0.00,40.00,8,3,0,0.00
2013-6-30,79,70,63,-100,-100,-100,0,0,100,0.00,40.00,6,3,0,0.00
2013-7-1,80,73,60,-100,-100,-100,0,0,100,0.00,40.00,13,5,0,0.00
2013-7-2,82,70,53,-100,-100,-100,0,0,100,0.00,40.00,6,3,0,0.00
2013-7-3,88,73,53,-100,-100,-100,0,0,100,0.00,40.00,6,3,0,0.00
2013-7-4,91,76,55,-100,-100,-100,0,0,100,0.00,40.00,7,4,0,0.00
2013-7-5,90,77,61,-100,-100,-100,0,0,100,0.00,40.00,9,4,0,0.00
2013-7-6,90,77,65,-100,-100,-100,0,0,100,0.00,40.00,8,4,0,0.00
2013-7-7,85,76,62,-100,-100,-100,0,0,100,0.00,40.00,5,3,0,0.00
2013-7-8,94,76,64,-100,-100,-100,0,0,100,0.00,40.00,13,4,0,0.00
2013-7-9,96,80,63,-100,-100,-100,0,0,100,0.00,40.00,10,4,0,0.00
2013-7-10,88,75,60,-100,-100,-100,0,0,100,0.00,40.00,5,3,0,0.00
2013-7-11,99,78,59,-100,-100,-100,0,0,100,0.00,40.00,12,4,0,0.00
2013-7-12,92,75,62,-100,-100,-100,0,0,100,0.00,40.00,5,3,0,0.00
2013-7-13,89,73,61,-100,-100,-100,0,0,100,0.00,40.00,6,3,0,0.00
2013-7-14,85,71,58,-100,-100,-100,0,0,100,0.00,40.00,8,4,0,0.00
2013-7-15,78,69,63,-100,-100,-100,0,0,100,0.00,40.00,8,3,0,0.00
2013-7-16,83,73,52,-100,-100,-100,0,0,100,0.00,40.00,9,4,0,0.00
2013-7-17,91,76,54,-100,-100,-100,0,0,100,0.00,40.00,7,3,0,0.00
2013-7-18,92,79,61,-100,-100,-100,0,0,100,0.00,40.00,8,4,0,0.00
2013-7-19,82,75,66,-100,-100,-100,0,0,100,0.00,40.00,7,4,0,0.00
2013-7-20,90,74,57,-100,-100,-100,0,0,100,0.00,40.00,12,4,0,0.00
2013-7-21,89,75,56,-100,-100,-100,0,0,100,0.00,40.00,9,3,0,0.00
2013-7-22,93,80,59,-100,-100,-100,0,0,100,0.00,40.00,7,3,0,0.00
2013-7-23,90,78,59,-100,-100,-100,0,0,100,0.00,40.00,6,3,0,0.00
2013-7-24,82,74,64,-100,-100,-100,0,0,100,0.00,40.00,8,3,0,0.00
2013-7-25,78,67,59,-100,-100,-100,0,0,100,0.00,40.00,12,3,0,0.00
2013-7-26,86,72,55,-100,-100,-100,0,0,100,0.00,40.00,9,3,0,0.00
2013-7-27,79,67,53,-100,-100,-100,0,0,100,0.00,40.00,7,4,0,0.00
2013-7-28,70,63,59,-100,-100,-100,0,0,100,0.00,40.00,5,3,0,0.00
2013-7-29,75,63,57,-100,-100,-100,0,0,100,0.00,40.00,5,2,0,0.00
2013-7-30,88,74,55,-100,-100,-100,0,0,100,0.00,40.00,8,3,0,0.00
2013-7-31,91,76,59,-100,-100,-100,0,0,100,0.00,40.00,9,3,0,0.00
2013-8-1,88,76,61,-100,-100,-100,0,0,100,0.00,40.00,12,4,0,0.00
2013-8-2,92,78,59,-100,-100,-100,0,0,100,0.00,40.00,9,4,0,0.00
2013-8-3,92,73,61,-100,-100,-100,0,0,100,0.00,40.00,11,4,0,0.00
2013-8-4,92,74,55,-100,-100,-100,0,0,100,0.00,40.00,9,4,0,0.00
2013-8-5,85,73,56,-100,-100,-100,0,0,100,0.00,40.00,9,3,0,0.00
2013-8-6,89,72,56,-100,-100,-100,0,0,100,0.00,40.00,8,4,0,0.00
2013-8-7,77,66,58,-100,-100,-100,0,0,100,0.00,40.00,7,3,0,0.00
2013-8-8,79,66,58,-100,-100,-100,0,0,100,0.00,40.00,6,3,0,0.00
2013-8-9,79,66,51,-100,-100,-100,0,0,100,0.00,40.00,9,4,0,0.00
2013-8-10,87,70,50,-100,-100,-100,0,0,100,0.00,40.00,6,3,0,0.00
2013-8-11,82,71,59,-100,-100,-100,0,0,100,0.00,40.00,5,3,0,0.00
2013-8-12,82,69,55,-100,-100,-100,0,0,100,0.00,40.00,9,4,0,0.00
2013-8-13,80,67,53,-100,-100,-100,0,0,100,0.00,40.00,9,4,0,0.00
2013-8-14,83,69,51,-100,-100,-100,0,0,100,0.00,40.00,5,2,0,0.00
2013-8-15,86,66,52,-100,-100,-100,0,0,100,0.00,40.00,5,3,0,0.00
2013-8-16,92,73,53,-100,-100,-100,0,0,100,0.00,40.00,6,2,0,0.00
2013-8-17,95,76,55,-100,-100,-100,0,0,100,0.00,40.00,3,2,0,0.00
2013-8-18,94,76,55,-100,-100,-100,0,0,100,0.00,40.00,5,2,0,0.00
2013-8-19,97,74,55,-100,-100,-100,0,0,100,0.00,40.00,5,2,0,0.00
2013-8-20,97,81,58,-100,-100,-100,0,0,100,0.00,40.00,5,2,0,0.00
2013-8-21,91,77,64,-100,-100,-100,0,0,100,0.00,40.00,9,3,0,0.00
2013-8-22,81,70,60,-100,-100,-100,0,0,100,0.00,40.00,7,3,0,0.00
2013-8-23,89,72,59,-100,-100,-100,0,0,100,0.00,40.00,7,3,0,0.00
2013-8-24,85,71,56,-100,-100,-100,0,0,100,0.00,40.00,9,3,0,0.00
2013-8-25,92,76,59,-100,-100,-100,0,0,100,0.00,40.00,6,3,0,0.00
2013-8-26,90,77,59,-100,-100,-100,0,0,100,0.00,40.00,4,2,0,0.00
2013-8-27,88,76,60,-100,-100,-100,0,0,100,0.00,40.00,4,2,0,0.00
2013-8-28,93,84,69,-100,-100,-100,0,0,100,0.00,40.00,4,2,0,0.00
2013-8-29,95,79,60,-100,-100,-100,0,0,100,0.00,40.00,8,3,0,0.00
2013-8-30,88,75,67,-100,-100,-100,0,0,100,0.00,40.00,9,3,0,0.00
2013-8-31,91,74,63,-100,-100,-100,0,0,100,0.00,40.00,6,3,0,0.00
2013-9-1,79,70,60,-100,-100,-100,0,0,100,0.00,40.00,4,2,0,0.00
2013-9-2,92,76,55,-100,-100,-100,0,0,100,0.00,40.00,4,2,0,0.00
2013-9-3,96,80,63,-100,-100,-100,0,0,100,0.00,40.00,7,4,0,0.00
2013-9-4,92,78,66,-100,-100,-100,0,0,100,0.00,40.00,5,2,0,0.00
2013-9-5,94,77,62,-100,-100,-100,0,0,100,0.00,40.00,6,2,0,0.00
2013-9-6,97,79,58,-100,-100,-100,0,0,100,0.00,40.00,8,2,0,0.00
2013-9-7,94,76,57,-100,-100,-100,0,0,100,0.00,40.00,6,2,0,0.00
2013-9-8,91,75,56,-100,-100,-100,0,0,100,0.00,40.00,6,2,0,0.00
2013-9-9,84,66,57,-100,-100,-100,0,0,100,0.00,40.00,9,4,0,0.00
2013-9-10,65,60,58,-100,-100,-100,0,0,100,0.00,40.00,5,3,0,0.00
2013-9-11,68,62,59,-100,-100,-100,0,0,100,0.00,40.00,6,3,0,0.00
2013-9-12,65,61,58,-100,-100,-100,0,0,100,0.00,40.00,6,3,0,0.00
2013-9-13,77,64,57,-100,-100,-100,0,0,100,0.00,40.00,5,2,0,0.00
2013-9-14,77,64,58,-100,-100,-100,0,0,100,0.00,40.00,7,3,0,0.00
2013-9-15,60,57,55,-100,-100,-100,0,0,100,0.00,40.00,7,3,0,0.00
2013-9-16,77,64,54,-100,-100,-100,0,0,100,0.00,40.00,4,2,0,0.00
2013-9-17,85,69,47,-100,-100,-100,0,0,100,0.00,40.00,6,3,0,0.00
2013-9-18,67,61,56,-100,-100,-100,0,0,100,0.00,40.00,5,2,0,0.00
2013-9-19,66,59,50,-100,-100,-100,0,0,100,0.00,40.00,6,3,0,0.00
2013-9-20,74,59,46,-100,-100,-100,0,0,100,0.00,40.00,3,2,0,0.00
2013-9-21,84,66,45,-100,-100,-100,0,0,100,0.00,40.00,6,3,0,0.00
2013-9-22,80,65,49,-100,-100,-100,0,0,100,0.00,40.00,10,3,0,0.00
2013-9-23,68,58,49,-100,-100,-100,0,0,100,0.00,40.00,11,5,0,0.00
2013-9-24,79,59,37,-100,-100,-100,0,0,100,0.00,40.00,4,2,0,0.00
2013-9-25,83,64,39,-100,-100,-100,0,0,100,0.00,40.00,6,2,0,0.00
2013-9-26,70,57,42,-100,-100,-100,0,0,100,0.00,40.00,5,2,0,0.00
2013-9-27,52,47,39,-100,-100,-100,0,0,100,0.00,40.00,8,4,0,0.00
2013-9-28,68,52,33,-100,-100,-100,0,0,100,0.00,40.00,9,4,0,0.00
2013-9-29,77,60,37,-100,-100,-100,0,0,100,0.00,40.00,7,3,0,0.00
2013-9-30,84,68,51,-100,-100,-100,0,0,100,0.00,40.00,4,2,0,0.00
2013-10-1,74,61,51,-100,-100,-100,0,0,100,0.00,40.00,4,2,0,0.00
2013-10-2,78,62,41,-100,-100,-100,0,0,100,0.00,40.00,6,3,0,0.00
2013-10-3,63,52,39,-100,-100,-100,0,0,100,0.00,40.00,5,2,0,0.00
2013-10-4,43,37,32,-100,-100,-100,0,0,100,0.00,40.00,14,4,0,0.00
2013-10-5,64,46,26,-100,-100,-100,0,0,100,0.00,40.00,7,3,0,0.00
2013-10-6,69,51,29,-100,-100,-100,0,0,100,0.00,40.00,5,2,0,0.00
2013-10-7,80,58,33,-100,-100,-100,0,0,100,0.00,40.00,4,2,0,0.00
2013-10-8,78,60,45,-100,-100,-100,0,0,100,0.00,40.00,6,2,0,0.00
2013-10-9,64,54,42,-100,-100,-100,0,0,100,0.00,40.00,6,3,0,0.00
2013-10-10,61,50,42,-100,-100,-100,0,0,100,0.00,40.00,11,3,0,0.00
2013-10-11,63,53,41,-100,-100,-100,0,0,100,0.00,40.00,7,4,0,0.00
2013-10-12,57,47,39,-100,-100,-100,0,0,100,0.00,40.00,6,3,0,0.00
2013-10-13,63,49,34,-100,-100,-100,0,0,100,0.00,40.00,5,2,0,0.00
2013-10-14,55,46,38,-100,-100,-100,0,0,100,0.00,40.00,12,4,0,0.00
2013-10-15,41,38,35,-100,-100,-100,0,0,100,0.00,40.00,5,2,0,0.00
2013-10-16,54,40,25,-100,-100,-100,0,0,100,0.00,40.00,4,2,0,0.00
2013-10-17,49,42,33,-100,-100,-100,0,0,100,0.00,40.00,6,3,0,0.00
2013-10-18,45,37,29,-100,-100,-100,0,0,100,0.00,40.00,5,2,0,0.00
2013-10-19,68,52,30,-100,-100,-100,0,0,100,0.00,40.00,10,4,0,0.00
2013-10-20,54,43,34,-100,-100,-100,0,0,100,0.00,40.00,10,3,0,0.00
2013-10-21,63,46,29,-100,-100,-100,0,0,100,0.00,40.00,5,2,0,0.00
2013-10-22,65,50,32,-100,-100,-100,0,0,100,0.00,40.00,5,2,0,0.00
2013-10-23,65,51,32,-100,-100,-100,0,0,100,0.00,40.00,5,2,0,0.00
2013-10-24,55,39,30,-100,-100,-100,0,0,100,0.00,40.00,3,1,0,0.00
2013-10-25,68,55,32,-100,-100,-100,0,0,100,0.00,40.00,5,2,0,0.00
2013-10-26,61,53,48,-100,-100,-100,0,0,100,0.00,40.00,4,2,0,0.00
2013-10-27,70,52,32,-100,-100,-100,0,0,100,0.00,40.00,7,4,0,0.00
2013-10-28,42,35,32,-100,-100,-100,0,0,100,0.00,40.00,6,4,0,0.00
2013-10-29,38,35,32,-100,-100,-100,0,0,100,0.00,40.00,6,2,0,0.00
2013-10-30,46,38,32,-100,-100,-100,0,0,100,0.00,40.00,7,3,0,0.00
2013-10-31,56,48,40,-100,-100,-100,0,0,100,0.00,40.00,13,8,0,0.00
2013-11-1,56,43,33,-100,-100,-100,0,0,100,0.00,40.00,6,3,0,0.00
2013-11-2,68,44,25,-100,-100,-100,0,0,100,0.00,40.00,3,2,0,0.00
2013-11-3,71,50,35,-100,-100,-100,0,0,100,0.00,40.00,15,4,0,0.00
2013-11-4,43,36,28,-100,-100,-100,0,0,100,0.00,40.00,8,4,0,0.00
2013-11-5,45,35,28,-100,-100,-100,0,0,100,0.00,40.00,10,4,0,0.00
2013-11-6,52,43,23,-100,-100,-100,0,0,100,0.00,40.00,12,6,0,0.00
2013-11-7,60,43,27,-100,-100,-100,0,0,100,0.00,40.00,7,2,0,0.00
2013-11-8,65,50,29,-100,-100,-100,0,0,100,0.00,40.00,7,3,0,0.00
2013-11-9,66,48,35,-100,-100,-100,0,0,100,0.00,40.00,6,3,0,0.00
2013-11-10,67,48,27,-100,-100,-100,0,0,100,0.00,40.00,5,2,0,0.00
2013-11-11,67,42,31,-100,-100,-100,0,0,100,0.00,40.00,14,4,0,0.00
2013-11-12,61,44,27,-100,-100,-100,0,0,100,0.00,40.00,4,2,0,0.00
2013-11-13,69,58,39,-100,-100,-100,0,0,100,0.00,40.00,7,3,0,0.00
2013-11-14,59,49,36,-100,-100,-100,0,0,100,0.00,40.00,7,3,0,0.00
2013-11-15,65,49,27,-100,-100,-100,0,0,100,0.00,40.00,9,4,0,0.00
2013-11-16,59,46,35,-100,-100,-100,0,0,100,0.00,40.00,14,6,0,0.00
2013-11-17,59,46,35,-100,-100,-100,0,0,100,0.00,40.00,15,6,0,0.00
2013-11-18,65,42,23,-100,-100,-100,0,0,100,0.00,40.00,5,3,0,0.00
2013-11-19,62,47,26,-100,-100,-100,0,0,100,0.00,40.00,6,3,0,0.00
2013-11-20,60,50,37,-100,-100,-100,0,0,100,0.00,40.00,8,4,0,0.00
2013-11-21,26,16,14,-100,-100,-100,0,0,100,0.00,40.00,9,5,0,0.00
2013-11-22,35,28,17,-100,-100,-100,0,0,100,0.00,40.00,5,2,0,0.00
2013-11-23,36,28,24,-100,-100,-100,0,0,100,0.00,40.00,3,2,0,0.00
2013-11-24,37,30,21,-100,-100,-100,0,0,100,0.00,40.00,3,2,0,0.00
2013-11-25,41,35,27,-100,-100,-100,0,0,100,0.00,40.00,9,3,0,0.00
2013-11-26,50,35,23,-100,-100,-100,0,0,100,0.00,40.00,5,2,0,0.00
2013-11-27,65,41,19,-100,-100,-100,0,0,100,0.00,40.00,6,2,0,0.00
2013-11-28,47,34,23,-100,-100,-100,0,0,100,0.00,40.00,6,2,0,0.00
2013-11-29,64,45,25,-100,-100,-100,0,0,100,0.00,40.00,7,3,0,0.00
2013-11-30,62,42,25,-100,-100,-100,0,0,100,0.00,40.00,4,2,0,0.00
2013-12-1,56,49,27,-100,-100,-100,0,0,100,0.00,40.00,15,6,0,0.00
2013-12-2,61,53,44,-100,-100,-100,0,0,100,0.00,40.00,10,5,0,0.00
2013-12-3,56,35,13,-100,-100,-100,0,0,100,0.00,40.00,13,7,0,0.00
2013-12-4,11,7,1,-100,-100,-100,0,0,100,0.00,40.00,7,4,0,0.00
2013-12-5,8,0,-10,-100,-100,-100,0,0,100,0.00,40.00,7,3,0,0.00
2013-12-6,13,1,-8,-100,-100,-100,0,0,100,0.00,40.00,4,2,0,0.00
2013-12-7,11,1,-7,-100,-100,-100,0,0,100,0.00,40.00,3,1,0,0.00
2013-12-8,21,10,3,-100,-100,-100,0,0,100,0.00,40.00,5,2,0,0.00
2013-12-9,32,16,-2,-100,-100,-100,0,0,100,0.00,40.00,8,4,0,0.00
2013-12-10,50,33,18,-100,-100,-100,0,0,100,0.00,40.00,6,4,0,0.00
2013-12-11,36,23,11,-100,-100,-100,0,0,100,0.00,40.00,6,3,0,0.00
2013-12-12,58,36,12,-100,-100,-100,0,0,100,0.00,40.00,3,2,0,0.00
2013-12-13,49,34,16,-100,-100,-100,0,0,100,0.00,40.00,8,3,0,0.00
2013-12-14,47,32,15,-100,-100,-100,0,0,100,0.00,40.00,8,3,0,0.00
2013-12-15,56,48,34,-100,-100,-100,0,0,100,0.00,40.00,17,6,0,0.00
2013-12-16,66,51,38,-100,-100,-100,0,0,100,0.00,40.00,10,4,0,0.00
2013-12-17,67,48,29,-100,-100,-100,0,0,100,0.00,40.00,8,4,0,0.00
2013-12-18,69,55,41,-100,-100,-100,0,0,100,0.00,40.00,7,4,0,0.00
2013-12-19,46,34,17,-100,-100,-100,0,0,100,0.00,40.00,10,5,0,0.00
2013-12-20,24,20,16,-100,-100,-100,0,0,100,0.00,40.00,4,2,0,0.00
2013-12-21,31,22,12,-100,-100,-100,0,0,100,0.00,40.00,7,3,0,0.00
2013-12-22,42,29,13,-100,-100,-100,0,0,100,0.00,40.00,9,5,0,0.00
2013-12-23,47,32,19,-100,-100,-100,0,0,100,0.00,40.00,11,3,0,0.00
2013-12-24,55,40,24,-100,-100,-100,0,0,100,0.00,40.00,10,5,0,0.00
2013-12-25,47,30,18,-100,-100,-100,0,0,100,0.00,40.00,8,2,0,0.00
2013-12-26,54,44,27,-100,-100,-100,0,0,100,0.00,40.00,10,4,0,0.00
2013-12-27,61,46,28,-100,-100,-100,0,0,100,0.00,40.00,3,2,0,0.00
2013-12-28,59,34,22,-100,-100,-100,0,0,100,0.00,40.00,14,6,0,0.00
2013-12-29,35,24,14,-100,-100,-100,0,0,100,0.00,40.00,4,2,0,0.00
2013-12-30,49,39,26,-100,-100,-100,0,0,100,0.00,40.00,11,6,0,0.00
2013-12-31,59,46,27,-100,-100,-100,0,0,100,0.00,40.00,12,6,0,0.00
2014-1-1,48,34,23,-100,-100,-100,0,0,100,0.00,40.00,13,4,0,0.00
2014-1-2,44,31,15,-100,-100,-100,0,0,100,0.00,40.00,5,3,0,0.00